Dades meteomassalio
Diari Summary for Abril 28, 2017 Units:  Metric    English   Both
« Previous Day
Next Day »
Diari Semanal Mensual Anual Personalitzat
  Maxima: Minima: Mijana:
Temperatura: 17.0 °C 4.0 °C 10 °C
Rosada: 5.4 °C -0.6 °C 1.2 °C
Humitat: 75 % 34 % 57 %
Velocitat del vent: 30.6 km/h 0.0 km/h 9.6 km/h
Racha vent: 30.6 km/h - -
Vent:- - SW
Pressio: 1020.5 hPa 1015.1 hPa -
Pluja: 0.0 mm    
Historical Graphs
 
 
Tabular Data for Abril 28, 2017
Time Temperature Dew Point Pressure Wind Wind Speed Wind Gust Humidity Rainfall Rate (Hourly) solar Conditions
00:00 7.6 °C -0.6 °C 1018.8 hPa WNW 24.1 km/h 24.1 km/h 56 % 0.0 mm 0.0 W/m2 CLR
00:05 7.4 °C -0.6 °C 1019.2 hPa WNW 20.4 km/h 20.4 km/h 57 % 0.0 mm 0.0 W/m2 RA
00:10 7.4 °C -0.6 °C 1019.2 hPa WNW 20.9 km/h 20.9 km/h 57 % 0.0 mm 0.0 W/m2 CLR
00:15 7.3 °C -0.4 °C 1019.2 hPa West 18.5 km/h 18.5 km/h 58 % 0.0 mm 0.0 W/m2 CLR
00:20 7.2 °C -0.3 °C 1019.2 hPa WNW 22.2 km/h 22.2 km/h 59 % 0.0 mm 0.0 W/m2 CLR
00:25 7.1 °C -0.4 °C 1019.2 hPa WNW 20.4 km/h 20.4 km/h 59 % 0.0 mm 0.0 W/m2 CLR
00:30 7.1 °C -0.4 °C 1019.2 hPa WNW 14.8 km/h 14.8 km/h 59 % 0.0 mm 0.0 W/m2 CLR
00:35 7.0 °C -0.5 °C 1019.2 hPa West 16.7 km/h 16.7 km/h 59 % 0.0 mm 0.0 W/m2 CLR
00:40 7.0 °C -0.2 °C 1019.2 hPa WNW 18.5 km/h 18.5 km/h 60 % 0.0 mm 0.0 W/m2 CLR
00:45 6.9 °C -0.1 °C 1019.2 hPa West 16.7 km/h 16.7 km/h 61 % 0.0 mm 0.0 W/m2 CLR
00:50 6.8 °C -0.2 °C 1019.2 hPa West 18.5 km/h 18.5 km/h 61 % 0.0 mm 0.0 W/m2 CLR
00:55 6.8 °C -0.2 °C 1019.2 hPa WSW 18.5 km/h 18.5 km/h 61 % 0.0 mm 0.0 W/m2 CLR
01:00 6.7 °C -0.1 °C 1019.2 hPa West 18.5 km/h 18.5 km/h 62 % 0.0 mm 0.0 W/m2 CLR
01:05 6.7 °C -0.1 °C 1019.2 hPa West 18.5 km/h 18.5 km/h 62 % 0.0 mm 0.0 W/m2 CLR
01:10 6.6 °C -0.2 °C 1019.5 hPa WSW 18.5 km/h 18.5 km/h 62 % 0.0 mm 0.0 W/m2 CLR
01:15 6.6 °C -0.2 °C 1019.5 hPa West 14.8 km/h 14.8 km/h 62 % 0.0 mm 0.0 W/m2 CLR
01:20 6.5 °C -0.3 °C 1019.5 hPa West 9.3 km/h 9.3 km/h 62 % 0.0 mm 0.0 W/m2 CLR
01:25 6.4 °C -0.2 °C 1019.5 hPa WSW 16.7 km/h 16.7 km/h 63 % 0.0 mm 0.0 W/m2 CLR
01:30 6.3 °C -0.3 °C 1019.5 hPa West 16.1 km/h 16.1 km/h 63 % 0.0 mm 0.0 W/m2 CLR
01:35 6.3 °C -0.3 °C 1019.5 hPa West 14.8 km/h 14.8 km/h 63 % 0.0 mm 0.0 W/m2 CLR
01:40 6.3 °C -0.3 °C 1019.9 hPa West 16.7 km/h 16.7 km/h 63 % 0.0 mm 0.0 W/m2 CLR
01:45 6.2 °C -0.3 °C 1019.9 hPa West 13.0 km/h 13.0 km/h 63 % 0.0 mm 0.0 W/m2 CLR
01:50 6.2 °C -0.1 °C 1019.9 hPa WSW 18.5 km/h 18.5 km/h 64 % 0.0 mm 0.0 W/m2 CLR
01:55 6.2 °C -0.3 °C 1019.9 hPa West 25.9 km/h 25.9 km/h 63 % 0.0 mm 0.0 W/m2 CLR
02:00 6.2 °C -0.2 °C 1019.9 hPa WSW 20.4 km/h 20.4 km/h 64 % 0.0 mm 0.0 W/m2 CLR
02:05 6.1 °C -0.2 °C 1019.5 hPa West 22.5 km/h 22.5 km/h 64 % 0.0 mm 0.0 W/m2 CLR
02:10 6.1 °C -0.2 °C 1019.5 hPa West 18.5 km/h 18.5 km/h 64 % 0.0 mm 0.0 W/m2 CLR
02:12 6.1 °C -0.2 °C 1019.5 hPa WSW 18.5 km/h 18.5 km/h 64 % 0.0 mm 0.0 W/m2 CLR
02:17 6.1 °C -0.2 °C 1019.5 hPa West 22.2 km/h 22.2 km/h 64 % 0.0 mm 0.0 W/m2 CLR
02:22 6.0 °C -0.3 °C 1019.5 hPa WSW 20.4 km/h 20.4 km/h 64 % 0.0 mm 0.0 W/m2 CLR
02:27 6.0 °C -0.3 °C 1019.5 hPa WSW 25.9 km/h 25.9 km/h 64 % 0.0 mm 0.0 W/m2 CLR
02:32 5.9 °C -0.2 °C 1019.5 hPa West 25.7 km/h 25.7 km/h 65 % 0.0 mm 0.0 W/m2 CLR
02:37 5.9 °C -0.2 °C 1019.5 hPa West 22.2 km/h 22.2 km/h 65 % 0.0 mm 0.0 W/m2 CLR
02:42 5.9 °C -0.2 °C 1019.5 hPa WNW 27.8 km/h 27.8 km/h 65 % 0.0 mm 0.0 W/m2 CLR
02:47 5.9 °C -0.2 °C 1019.5 hPa West 22.2 km/h 22.2 km/h 65 % 0.0 mm 0.0 W/m2 CLR
02:52 5.8 °C -0.2 °C 1019.5 hPa West 22.2 km/h 22.2 km/h 65 % 0.0 mm 0.0 W/m2 CLR
02:57 5.7 °C -0.2 °C 1019.5 hPa West 20.9 km/h 20.9 km/h 66 % 0.0 mm 0.0 W/m2 CLR
03:02 5.7 °C -0.2 °C 1019.5 hPa West 20.4 km/h 20.4 km/h 66 % 0.0 mm 0.0 W/m2 CLR
03:07 5.6 °C -0.2 °C 1019.5 hPa West 18.5 km/h 18.5 km/h 66 % 0.0 mm 0.0 W/m2 CLR
03:12 5.5 °C -0.3 °C 1019.5 hPa West 16.7 km/h 16.7 km/h 66 % 0.0 mm 0.0 W/m2 CLR
03:17 5.5 °C -0.3 °C 1019.5 hPa WSW 18.5 km/h 18.5 km/h 66 % 0.0 mm 0.0 W/m2 CLR
03:22 5.4 °C -0.3 °C 1019.5 hPa West 20.4 km/h 20.4 km/h 67 % 0.0 mm 0.0 W/m2 CLR
03:27 5.4 °C -0.3 °C 1019.5 hPa West 18.5 km/h 18.5 km/h 67 % 0.0 mm 0.0 W/m2 CLR
03:32 5.3 °C -0.3 °C 1019.5 hPa West 16.7 km/h 16.7 km/h 67 % 0.0 mm 0.0 W/m2 CLR
03:37 5.2 °C -0.2 °C 1019.5 hPa WSW 13.0 km/h 13.0 km/h 68 % 0.0 mm 0.0 W/m2 CLR
03:42 5.1 °C -0.3 °C 1019.5 hPa West 5.6 km/h 5.6 km/h 68 % 0.0 mm 0.0 W/m2 CLR
03:47 4.9 °C -0.3 °C 1019.5 hPa West 7.4 km/h 7.4 km/h 69 % 0.0 mm 0.0 W/m2 CLR
03:52 4.8 °C -0.2 °C 1019.5 hPa WSW 9.3 km/h 9.3 km/h 70 % 0.0 mm 0.0 W/m2 CLR
03:57 4.7 °C -0.3 °C 1019.5 hPa WSW 11.1 km/h 11.1 km/h 70 % 0.0 mm 0.0 W/m2 CLR
04:02 4.7 °C -0.2 °C 1019.9 hPa WSW 5.6 km/h 5.6 km/h 71 % 0.0 mm 0.0 W/m2 CLR
04:07 4.6 °C -0.3 °C 1019.9 hPa WSW 9.3 km/h 9.3 km/h 71 % 0.0 mm 0.0 W/m2 CLR
04:12 4.6 °C -0.2 °C 1019.9 hPa SW 7.4 km/h 7.4 km/h 71 % 0.0 mm 0.0 W/m2 CLR
04:17 4.5 °C -0.1 °C 1019.9 hPa SW 5.6 km/h 5.6 km/h 72 % 0.0 mm 0.0 W/m2 CLR
04:22 4.4 °C -0.2 °C 1019.9 hPa SW 5.6 km/h 5.6 km/h 72 % 0.0 mm 0.0 W/m2 CLR
04:27 4.3 °C -0.1 °C 1019.9 hPa WSW 5.6 km/h 6.0 km/h 73 % 0.0 mm 0.0 W/m2 CLR
04:32 4.2 °C -0.2 °C 1019.9 hPa WSW 7.4 km/h 7.4 km/h 73 % 0.0 mm 0.0 W/m2 CLR
04:37 4.1 °C -0.3 °C 1019.9 hPa WSW 9.7 km/h 9.7 km/h 73 % 0.0 mm 0.0 W/m2 CLR
04:43 4.1 °C -0.2 °C 1019.9 hPa West 11.1 km/h 11.1 km/h 74 % 0.0 mm 0.0 W/m2 CLR
04:48 4.1 °C -0.1 °C 1019.9 hPa WSW 9.3 km/h 9.3 km/h 74 % 0.0 mm 0.0 W/m2 CLR
04:53 4.1 °C -0.2 °C 1019.9 hPa WSW 14.8 km/h 14.8 km/h 74 % 0.0 mm 0.0 W/m2 CLR
04:58 4.1 °C -0.2 °C 1019.9 hPa WSW 5.6 km/h 5.6 km/h 74 % 0.0 mm 0.0 W/m2 CLR
05:03 4.0 °C -0.1 °C 1019.9 hPa WSW 11.1 km/h 11.1 km/h 75 % 0.0 mm 0.0 W/m2 CLR
05:08 4.1 °C 0.1 °C 1019.9 hPa West 16.7 km/h 16.7 km/h 75 % 0.0 mm 0.0 W/m2 CLR
05:13 4.3 °C 0.1 °C 1019.9 hPa WSW 16.7 km/h 16.7 km/h 74 % 0.0 mm 0.0 W/m2 CLR
05:18 4.4 °C -0.1 °C 1019.9 hPa West 5.6 km/h 6.1 km/h 73 % 0.0 mm 0.0 W/m2 CLR
05:23 4.4 °C -0.1 °C 1019.9 hPa West 9.3 km/h 9.3 km/h 73 % 0.0 mm 0.0 W/m2 CLR
05:28 4.3 °C -0.1 °C 1019.9 hPa WSW 9.3 km/h 9.3 km/h 73 % 0.0 mm 0.0 W/m2 CLR
05:33 4.2 °C 0.0 °C 1019.9 hPa WSW 11.1 km/h 11.1 km/h 74 % 0.0 mm 0.0 W/m2 CLR
05:38 4.2 °C 0.0 °C 1019.9 hPa WSW 5.6 km/h 5.6 km/h 74 % 0.0 mm 0.0 W/m2 CLR
05:43 4.2 °C 0.0 °C 1019.9 hPa WSW 6.4 km/h 6.4 km/h 74 % 0.0 mm 0.0 W/m2 CLR
05:48 4.3 °C 0.1 °C 1019.9 hPa West 12.9 km/h 12.9 km/h 74 % 0.0 mm 0.0 W/m2 CLR
05:53 4.3 °C -0.1 °C 1019.9 hPa WSW 11.3 km/h 11.3 km/h 73 % 0.0 mm 0.0 W/m2 CLR
05:58 4.3 °C -0.1 °C 1019.9 hPa SW 13.0 km/h 13.0 km/h 73 % 0.0 mm 0.0 W/m2 CLR
06:03 4.2 °C 0.0 °C 1020.2 hPa West 9.7 km/h 11.4 km/h 74 % 0.0 mm 0.0 W/m2 CLR
06:08 4.3 °C 0.1 °C 1019.9 hPa WSW 11.3 km/h 11.3 km/h 74 % 0.0 mm 0.0 W/m2 CLR
06:09 4.3 °C 0.1 °C 1019.9 hPa WSW 11.1 km/h 11.1 km/h 74 % 0.0 mm 0.0 W/m2 CLR
06:14 4.2 °C 0.0 °C 1020.2 hPa WSW 13.0 km/h 13.0 km/h 74 % 0.0 mm 0.0 W/m2 CLR
06:19 4.3 °C 0.1 °C 1020.2 hPa WSW 14.8 km/h 14.8 km/h 74 % 0.0 mm 0.0 W/m2 CLR
06:24 4.3 °C 0.1 °C 1020.2 hPa WSW 16.7 km/h 16.7 km/h 74 % 0.0 mm 0.0 W/m2 CLR
06:29 4.3 °C 0.1 °C 1020.2 hPa WSW 16.7 km/h 16.7 km/h 74 % 0.0 mm 0.0 W/m2 CLR
06:34 4.2 °C -0.1 °C 1020.2 hPa WSW 9.3 km/h 9.3 km/h 74 % 0.0 mm 0.0 W/m2 CLR
06:39 4.1 °C -0.1 °C 1020.2 hPa WSW 9.3 km/h 9.3 km/h 74 % 0.0 mm 0.0 W/m2 CLR
06:44 4.2 °C 0.0 °C 1020.2 hPa WSW 13.0 km/h 13.0 km/h 74 % 0.0 mm 0.0 W/m2 CLR
06:49 4.2 °C 0.0 °C 1020.2 hPa WSW 16.7 km/h 16.7 km/h 74 % 0.0 mm 0.0 W/m2 CLR
06:54 4.2 °C 0.0 °C 1020.2 hPa WSW 18.5 km/h 18.5 km/h 74 % 0.0 mm 0.0 W/m2 CLR
06:59 4.2 °C 0.0 °C 1020.2 hPa WSW 13.0 km/h 13.0 km/h 74 % 0.0 mm 7.0 W/m2 CLR
07:04 4.2 °C 0.0 °C 1020.5 hPa WSW 11.1 km/h 11.1 km/h 74 % 0.0 mm 11.0 W/m2 OVC
07:09 4.2 °C 0.0 °C 1020.5 hPa WSW 18.5 km/h 18.5 km/h 74 % 0.0 mm 12.0 W/m2 BKN
07:14 4.3 °C 0.1 °C 1020.5 hPa SW 11.1 km/h 11.1 km/h 74 % 0.0 mm 16.0 W/m2 BKN
07:19 4.3 °C 0.1 °C 1020.5 hPa WSW 11.1 km/h 11.1 km/h 74 % 0.0 mm 21.0 W/m2 BKN
07:24 4.3 °C 0.1 °C 1020.5 hPa WSW 5.6 km/h 5.6 km/h 74 % 0.0 mm 26.0 W/m2 BKN
07:29 4.3 °C 0.1 °C 1020.5 hPa WSW 5.6 km/h 5.6 km/h 74 % 0.0 mm 30.0 W/m2 BKN
07:34 4.2 °C 0.2 °C 1020.5 hPa SW 8.0 km/h 8.0 km/h 75 % 0.0 mm 33.0 W/m2 BKN
07:39 4.2 °C 0.1 °C 1020.5 hPa WSW 9.3 km/h 9.3 km/h 75 % 0.0 mm 39.0 W/m2 BKN
07:44 4.1 °C 0.1 °C 1020.5 hPa WSW 7.4 km/h 7.4 km/h 75 % 0.0 mm 51.0 W/m2 SCT
07:49 4.2 °C 0.1 °C 1020.5 hPa WSW 7.4 km/h 7.4 km/h 75 % 0.0 mm 58.0 W/m2 SCT
07:54 4.3 °C 0.2 °C 1020.5 hPa WSW 8.0 km/h 8.0 km/h 75 % 0.0 mm 65.0 W/m2 SCT
07:59 4.3 °C 0.3 °C 1020.5 hPa WSW 6.4 km/h 6.4 km/h 75 % 0.0 mm 76.0 W/m2 FEW
08:04 4.4 °C 0.3 °C 1020.5 hPa SW 6.4 km/h 6.4 km/h 75 % 0.0 mm 91.0 W/m2 FEW
08:09 4.4 °C 0.4 °C 1020.5 hPa SW 6.4 km/h 6.4 km/h 75 % 0.0 mm 77.0 W/m2 FEW
08:14 4.5 °C 0.4 °C 1020.5 hPa WSW 5.6 km/h 5.6 km/h 75 % 0.0 mm 88.0 W/m2 FEW
08:19 4.6 °C 0.5 °C 1020.5 hPa WSW 6.4 km/h 6.4 km/h 75 % 0.0 mm 88.0 W/m2 CLR
08:24 4.7 °C 0.7 °C 1020.5 hPa WSW 3.7 km/h 3.7 km/h 75 % 0.0 mm 192.0 W/m2 CLR
08:29 5.0 °C 0.6 °C 1020.5 hPa West 13.0 km/h 13.0 km/h 73 % 0.0 mm 174.0 W/m2 CLR
08:34 5.2 °C 0.6 °C 1020.5 hPa WSW 11.3 km/h 11.3 km/h 72 % 0.0 mm 134.0 W/m2 CLR
08:39 5.4 °C 0.6 °C 1020.5 hPa West 13.0 km/h 13.0 km/h 71 % 0.0 mm 190.0 W/m2 CLR
08:44 5.6 °C 0.5 °C 1020.5 hPa WNW 7.4 km/h 7.4 km/h 70 % 0.0 mm 251.0 W/m2 CLR
08:49 5.8 °C 0.7 °C 1020.5 hPa NW 12.9 km/h 12.9 km/h 70 % 0.0 mm 278.0 W/m2 CLR
08:54 6.1 °C 0.8 °C 1020.5 hPa West 18.5 km/h 18.5 km/h 69 % 0.0 mm 336.0 W/m2 CLR
08:59 6.2 °C 0.7 °C 1020.5 hPa WSW 16.7 km/h 16.7 km/h 68 % 0.0 mm 304.0 W/m2 CLR
09:04 6.3 °C 0.8 °C 1020.2 hPa WSW 9.7 km/h 9.7 km/h 68 % 0.0 mm 338.0 W/m2 CLR
09:09 6.5 °C 1.0 °C 1020.2 hPa SW 7.4 km/h 7.4 km/h 68 % 0.0 mm 234.0 W/m2 CLR
09:14 6.6 °C 0.9 °C 1020.2 hPa WSW 5.6 km/h 5.6 km/h 67 % 0.0 mm 176.0 W/m2 CLR
09:19 6.5 °C 0.8 °C 1020.2 hPa SW 7.4 km/h 7.4 km/h 67 % 0.0 mm 162.0 W/m2 CLR
09:24 6.5 °C 0.8 °C 1020.2 hPa West 3.7 km/h   67 % 0.0 mm 236.0 W/m2 CLR
09:29 6.6 °C 0.9 °C 1020.2 hPa WSW 5.6 km/h 5.6 km/h 67 % 0.0 mm 223.0 W/m2 CLR
09:35 6.6 °C 0.9 °C 1020.2 hPa WSW 11.1 km/h 11.1 km/h 67 % 0.0 mm 415.0 W/m2 CLR
09:40 6.8 °C 1.1 °C 1020.2 hPa NW 11.3 km/h 11.3 km/h 67 % 0.0 mm 417.0 W/m2 CLR
09:45 7.1 °C 1.2 °C 1020.2 hPa SW 13.0 km/h 13.0 km/h 66 % 0.0 mm 380.0 W/m2 CLR
09:50 7.1 °C 0.9 °C 1020.2 hPa SW 5.6 km/h 6.3 km/h 65 % 0.0 mm 429.0 W/m2 CLR
09:55 7.3 °C 1.2 °C 1020.2 hPa West 9.7 km/h 9.7 km/h 65 % 0.0 mm 445.0 W/m2 CLR
10:00 7.3 °C 1.4 °C 1019.9 hPa West 14.8 km/h 14.8 km/h 66 % 0.0 mm 392.0 W/m2 CLR
10:05 7.3 °C 1.1 °C 1020.2 hPa WNW 14.8 km/h 14.8 km/h 65 % 0.0 mm 422.0 W/m2 CLR
10:10 7.3 °C 1.2 °C 1020.2 hPa WSW 14.8 km/h 14.8 km/h 65 % 0.0 mm 329.0 W/m2 CLR
10:15 7.4 °C 1.2 °C 1020.2 hPa WSW 14.8 km/h 14.8 km/h 65 % 0.0 mm 341.0 W/m2 CLR
10:20 7.5 °C 1.3 °C 1020.2 hPa West 6.4 km/h 6.9 km/h 65 % 0.0 mm 341.0 W/m2 CLR
10:25 7.6 °C 1.2 °C 1020.2 hPa SW 18.5 km/h 18.5 km/h 64 % 0.0 mm 381.0 W/m2 CLR
10:30 7.5 °C 1.3 °C 1020.2 hPa West 16.7 km/h 16.7 km/h 65 % 0.0 mm 374.0 W/m2 CLR
10:35 7.7 °C 1.3 °C 1020.2 hPa WSW 14.8 km/h 14.8 km/h 64 % 0.0 mm 403.0 W/m2 CLR
10:40 7.8 °C 1.4 °C 1019.9 hPa WNW 11.3 km/h 12.2 km/h 64 % 0.0 mm 369.0 W/m2 CLR
10:45 7.9 °C 1.3 °C 1019.9 hPa WNW 16.7 km/h 16.7 km/h 63 % 0.0 mm 410.0 W/m2 CLR
10:50 8.0 °C 1.2 °C 1019.9 hPa SSW 9.3 km/h 9.3 km/h 62 % 0.0 mm 473.0 W/m2 CLR
10:55 8.2 °C 1.1 °C 1019.9 hPa WNW 16.7 km/h 16.7 km/h 61 % 0.0 mm 526.0 W/m2 CLR
11:00 8.6 °C 1.4 °C 1019.9 hPa West 18.5 km/h 18.5 km/h 61 % 0.0 mm 617.0 W/m2 CLR
11:05 8.7 °C 1.2 °C 1019.9 hPa West 18.5 km/h 18.5 km/h 59 % 0.0 mm 773.0 W/m2 CLR
11:10 8.9 °C 1.6 °C 1019.9 hPa WSW 14.8 km/h 14.8 km/h 60 % 0.0 mm 744.0 W/m2 CLR
11:15 9.2 °C 1.1 °C 1019.9 hPa West 13.0 km/h 13.0 km/h 57 % 0.0 mm 756.0 W/m2 CLR
11:20 9.5 °C 1.9 °C 1019.9 hPa NW 14.8 km/h 14.8 km/h 59 % 0.0 mm 784.0 W/m2 CLR
11:25 9.6 °C 1.0 °C 1019.9 hPa West 11.1 km/h 11.1 km/h 55 % 0.0 mm 789.0 W/m2 CLR
11:30 9.9 °C 1.3 °C 1019.9 hPa West 18.5 km/h 18.5 km/h 55 % 0.0 mm 800.0 W/m2 CLR
11:35 9.9 °C 1.3 °C 1019.9 hPa West 12.9 km/h 12.9 km/h 55 % 0.0 mm 816.0 W/m2 CLR
11:40 10.0 °C 0.6 °C 1019.5 hPa West 14.8 km/h 14.8 km/h 52 % 0.0 mm 831.0 W/m2 CLR
11:45 10.1 °C 0.7 °C 1019.5 hPa West 14.5 km/h 14.5 km/h 52 % 0.0 mm 824.0 W/m2 CLR
11:50 10.2 °C 1.3 °C 1019.5 hPa WSW 3.7 km/h   54 % 0.0 mm 835.0 W/m2 CLR
11:55 10.7 °C 1.5 °C 1019.5 hPa West 5.6 km/h 5.6 km/h 53 % 0.0 mm 846.0 W/m2 CLR
12:00 10.8 °C 0.8 °C 1019.5 hPa SSW 1.9 km/h   50 % 0.0 mm 860.0 W/m2 CLR
12:05 10.8 °C 0.8 °C 1019.5 hPa West 7.4 km/h 7.4 km/h 50 % 0.0 mm 867.0 W/m2 CLR
12:10 10.9 °C 1.2 °C 1019.5 hPa WNW 5.6 km/h 5.6 km/h 51 % 0.0 mm 867.0 W/m2 CLR
12:15 11.1 °C 1.3 °C 1019.5 hPa North 3.2 km/h 3.2 km/h 51 % 0.0 mm 865.0 W/m2 CLR
12:20 11.4 °C 1.7 °C 1019.2 hPa West 12.9 km/h 12.9 km/h 51 % 0.0 mm 865.0 W/m2 CLR
12:25 11.4 °C 1.6 °C 1019.2 hPa Calm     51 % 0.0 mm 868.0 W/m2 CLR
12:30 11.4 °C 1.1 °C 1018.8 hPa NNW 3.7 km/h 3.7 km/h 49 % 0.0 mm 875.0 W/m2 CLR
12:35 11.7 °C 2.2 °C 1018.8 hPa WNW 12.9 km/h 12.9 km/h 52 % 0.0 mm 881.0 W/m2 CLR
12:40 11.8 °C 1.9 °C 1018.8 hPa Calm     51 % 0.0 mm 884.0 W/m2 CLR
12:45 11.9 °C 1.3 °C 1018.8 hPa North 16.7 km/h 16.7 km/h 48 % 0.0 mm 888.0 W/m2 CLR
12:50 12.2 °C 2.1 °C 1018.5 hPa West 1.9 km/h 1.9 km/h 50 % 0.0 mm 900.0 W/m2 CLR
12:55 12.4 °C 1.7 °C 1018.5 hPa North 13.0 km/h 13.0 km/h 48 % 0.0 mm 902.0 W/m2 CLR
13:00 12.3 °C 1.3 °C 1018.5 hPa NNW 11.3 km/h 11.3 km/h 47 % 0.0 mm 905.0 W/m2 CLR
13:05 12.4 °C 1.4 °C 1018.5 hPa NNW 13.0 km/h 13.0 km/h 47 % 0.0 mm 911.0 W/m2 CLR
13:10 12.4 °C 0.8 °C 1018.2 hPa Calm     45 % 0.0 mm 914.0 W/m2 CLR
13:15 12.6 °C 1.3 °C 1018.2 hPa NNW 3.2 km/h 3.2 km/h 46 % 0.0 mm 916.0 W/m2 CLR
13:20 12.7 °C 1.0 °C 1018.2 hPa ENE 3.7 km/h 3.7 km/h 45 % 0.0 mm 916.0 W/m2 CLR
13:25 12.7 °C 1.4 °C 1018.2 hPa ENE 3.7 km/h 3.7 km/h 46 % 0.0 mm 919.0 W/m2 CLR
13:30 12.8 °C 0.6 °C 1018.2 hPa NE 9.3 km/h 9.3 km/h 43 % 0.0 mm 921.0 W/m2 CLR
13:35 12.8 °C 1.2 °C 1017.8 hPa Calm     45 % 0.0 mm 923.0 W/m2 CLR
13:40 13.1 °C 1.1 °C 1017.8 hPa ENE 4.8 km/h 4.8 km/h 44 % 0.0 mm 925.0 W/m2 CLR
13:45 13.6 °C 1.9 °C 1017.8 hPa NW 1.9 km/h 1.9 km/h 45 % 0.0 mm 923.0 W/m2 CLR
13:50 14.0 °C 1.6 °C 1017.8 hPa WNW 3.7 km/h 3.7 km/h 43 % 0.0 mm 926.0 W/m2 CLR
13:55 14.3 °C 1.2 °C 1017.5 hPa NW 14.8 km/h 14.8 km/h 41 % 0.0 mm 926.0 W/m2 CLR
14:00 14.2 °C 1.2 °C 1017.5 hPa West 11.3 km/h 11.3 km/h 41 % 0.0 mm 928.0 W/m2 CLR
14:05 14.1 °C 2.0 °C 1017.5 hPa ENE 30.6 km/h 30.6 km/h 44 % 0.0 mm 926.0 W/m2 CLR
14:10 14.4 °C 1.3 °C 1017.5 hPa Calm     41 % 0.0 mm 926.0 W/m2 CLR
14:15 14.6 °C 1.4 °C 1017.2 hPa NW 1.9 km/h   41 % 0.0 mm 926.0 W/m2 CLR
14:20 14.7 °C 0.8 °C 1017.2 hPa NW 9.3 km/h 9.3 km/h 39 % 0.0 mm 925.0 W/m2 CLR
14:25 14.5 °C 0.7 °C 1017.2 hPa West 7.4 km/h 7.4 km/h 39 % 0.0 mm 925.0 W/m2 CLR
14:30 14.6 °C 0.4 °C 1017.2 hPa Calm     38 % 0.0 mm 918.0 W/m2 CLR
14:35 14.6 °C 0.8 °C 1017.2 hPa ENE 1.9 km/h   39 % 0.0 mm 926.0 W/m2 CLR
14:40 14.8 °C 1.0 °C 1017.2 hPa Calm     39 % 0.0 mm 916.0 W/m2 CLR
14:45 15.1 °C 0.8 °C 1016.8 hPa WSW 5.6 km/h 5.6 km/h 38 % 0.0 mm 918.0 W/m2 CLR
14:50 15.0 °C 0.8 °C 1016.8 hPa Calm     38 % 0.0 mm 909.0 W/m2 CLR
14:55 15.2 °C 1.3 °C 1016.8 hPa ENE 27.4 km/h 27.4 km/h 39 % 0.0 mm 902.0 W/m2 CLR
15:00 15.4 °C 1.2 °C 1016.8 hPa Calm     38 % 0.0 mm 900.0 W/m2 CLR
15:05 15.6 °C 0.9 °C 1016.8 hPa NNE 18.5 km/h 18.5 km/h 37 % 0.0 mm 905.0 W/m2 CLR
15:10 15.4 °C 1.1 °C 1016.8 hPa Calm     38 % 0.0 mm 884.0 W/m2 CLR
15:15 15.6 °C 1.3 °C 1016.8 hPa Calm   0.6 km/h 38 % 0.0 mm 877.0 W/m2 CLR
15:20 15.4 °C 0.8 °C 1016.8 hPa East 7.4 km/h 7.4 km/h 37 % 0.0 mm 872.0 W/m2 CLR
15:25 15.1 °C 0.9 °C 1016.5 hPa ESE 1.9 km/h 1.9 km/h 38 % 0.0 mm 784.0 W/m2 CLR
15:30 15.1 °C 1.2 °C 1016.5 hPa Calm     39 % 0.0 mm 744.0 W/m2 CLR
15:35 15.3 °C 1.1 °C 1016.5 hPa Calm     38 % 0.0 mm 831.0 W/m2 CLR
15:40 15.7 °C 1.4 °C 1016.5 hPa ENE 9.3 km/h 9.3 km/h 38 % 0.0 mm 844.0 W/m2 CLR
15:46 15.8 °C 1.8 °C 1016.5 hPa ENE 3.7 km/h 3.7 km/h 39 % 0.0 mm 826.0 W/m2 CLR
15:51 15.8 °C 1.2 °C 1016.1 hPa ESE 5.6 km/h   37 % 0.0 mm 812.0 W/m2 CLR
15:56 15.8 °C 1.1 °C 1016.1 hPa North 4.8 km/h 4.8 km/h 37 % 0.0 mm 833.0 W/m2 CLR
16:01 15.8 °C 1.2 °C 1016.1 hPa North 18.5 km/h 18.5 km/h 37 % 0.0 mm 780.0 W/m2 CLR
16:06 15.6 °C 0.5 °C 1015.8 hPa NE 1.9 km/h   36 % 0.0 mm 795.0 W/m2 CLR
16:11 15.8 °C 1.8 °C 1016.1 hPa NW 13.0 km/h 13.0 km/h 39 % 0.0 mm 795.0 W/m2 CLR
16:16 16.1 °C 1.7 °C 1015.8 hPa NNE 5.6 km/h 5.6 km/h 38 % 0.0 mm 791.0 W/m2 CLR
16:21 16.5 °C 1.7 °C 1015.8 hPa NNE 5.6 km/h 5.6 km/h 37 % 0.0 mm 775.0 W/m2 CLR
16:26 16.6 °C 1.4 °C 1015.8 hPa Calm     36 % 0.0 mm 749.0 W/m2 CLR
16:31 16.8 °C 1.7 °C 1015.8 hPa NE 16.1 km/h 16.1 km/h 36 % 0.0 mm 712.0 W/m2 CLR
16:36 16.7 °C 1.6 °C 1015.8 hPa NE 13.0 km/h 13.0 km/h 36 % 0.0 mm 673.0 W/m2 CLR
16:41 16.6 °C 2.2 °C 1015.8 hPa Calm   0.5 km/h 38 % 0.0 mm 675.0 W/m2 CLR
16:46 16.7 °C 1.5 °C 1015.5 hPa ENE 12.9 km/h 13.0 km/h 36 % 0.0 mm 694.0 W/m2 CLR
16:51 16.6 °C 1.8 °C 1015.5 hPa Calm     37 % 0.0 mm 668.0 W/m2 CLR
16:56 16.6 °C 1.0 °C 1015.8 hPa ESE 9.3 km/h 9.3 km/h 35 % 0.0 mm 628.0 W/m2 CLR
17:01 16.3 °C 1.2 °C 1015.5 hPa Calm     36 % 0.0 mm 670.0 W/m2 CLR
17:06 16.1 °C 0.6 °C 1015.5 hPa Calm   0.2 km/h 35 % 0.0 mm 617.0 W/m2 CLR
17:11 16.3 °C 1.6 °C 1015.5 hPa NNW 5.6 km/h   37 % 0.0 mm 671.0 W/m2 CLR
17:16 16.5 °C 1.4 °C 1015.5 hPa NNE 19.3 km/h 19.3 km/h 36 % 0.0 mm 645.0 W/m2 CLR
17:21 16.4 °C 0.9 °C 1015.5 hPa Calm     35 % 0.0 mm 640.0 W/m2 CLR
17:26 16.6 °C 1.4 °C 1015.5 hPa Calm     36 % 0.0 mm 577.0 W/m2 CLR
17:27 16.6 °C 1.4 °C 1015.5 hPa Calm     36 % 0.0 mm 577.0 W/m2 CLR
17:32 16.8 °C 1.2 °C 1015.5 hPa NNW 5.6 km/h 5.6 km/h 35 % 0.0 mm 606.0 W/m2 CLR
17:37 16.8 °C 1.2 °C 1015.5 hPa NNW 1.9 km/h   35 % 0.0 mm 564.0 W/m2 CLR
17:42 16.7 °C 1.2 °C 1015.5 hPa NNE 9.7 km/h 9.7 km/h 35 % 0.0 mm 559.0 W/m2 CLR
17:47 16.7 °C 1.2 °C 1015.5 hPa NNE 5.6 km/h 5.6 km/h 35 % 0.0 mm 538.0 W/m2 CLR
17:52 16.8 °C 1.2 °C 1015.5 hPa NNE 5.6 km/h 5.6 km/h 35 % 0.0 mm 524.0 W/m2 CLR
17:57 16.7 °C 1.2 °C 1015.5 hPa NNW 3.7 km/h 3.7 km/h 35 % 0.0 mm 476.0 W/m2 CLR
18:02 16.9 °C 1.3 °C 1015.5 hPa Calm     35 % 0.0 mm 487.0 W/m2 CLR
18:07 16.9 °C 0.9 °C 1015.5 hPa Calm     34 % 0.0 mm 476.0 W/m2 CLR
18:12 16.5 °C 0.9 °C 1015.5 hPa East 5.6 km/h 5.6 km/h 35 % 0.0 mm 461.0 W/m2 CLR
18:17 16.4 °C 0.9 °C 1015.5 hPa ENE 9.3 km/h   35 % 0.0 mm 434.0 W/m2 CLR
18:22 16.4 °C 0.9 °C 1015.1 hPa NNE 9.3 km/h 9.3 km/h 35 % 0.0 mm 429.0 W/m2 CLR
18:27 16.6 °C 1.0 °C 1015.1 hPa North 3.7 km/h 3.7 km/h 35 % 0.0 mm 373.0 W/m2 CLR
18:32 16.8 °C 1.2 °C 1015.1 hPa North 5.6 km/h 5.6 km/h 35 % 0.0 mm 387.0 W/m2 CLR
18:37 16.7 °C 1.2 °C 1015.1 hPa NNW 3.7 km/h 3.7 km/h 35 % 0.0 mm 378.0 W/m2 CLR
18:42 16.9 °C 1.3 °C 1015.1 hPa ENE 4.8 km/h 4.8 km/h 35 % 0.0 mm 350.0 W/m2 CLR
18:47 16.9 °C 0.9 °C 1015.1 hPa ENE 3.7 km/h 3.7 km/h 34 % 0.0 mm 352.0 W/m2 CLR
18:52 16.9 °C 0.9 °C 1015.1 hPa North 1.9 km/h   34 % 0.0 mm 329.0 W/m2 CLR
18:57 16.9 °C 1.4 °C 1015.1 hPa Calm     35 % 0.0 mm 318.0 W/m2 CLR
19:02 17.0 °C 1.0 °C 1015.1 hPa NE 5.6 km/h 5.6 km/h 34 % 0.0 mm 278.0 W/m2 CLR
19:07 16.8 °C 0.9 °C 1015.1 hPa East 5.6 km/h 5.6 km/h 34 % 0.0 mm 271.0 W/m2 CLR
19:12 16.6 °C 1.1 °C 1015.1 hPa ENE 3.7 km/h 3.7 km/h 35 % 0.0 mm 260.0 W/m2 CLR
19:17 16.6 °C 1.4 °C 1015.1 hPa NNE 5.6 km/h 5.6 km/h 36 % 0.0 mm 225.0 W/m2 CLR
19:22 16.6 °C 1.4 °C 1015.1 hPa NNE 5.6 km/h 5.6 km/h 36 % 0.0 mm 223.0 W/m2 CLR
19:27 16.7 °C 1.1 °C 1015.1 hPa NNE 5.6 km/h 5.6 km/h 35 % 0.0 mm 204.0 W/m2 CLR
19:32 16.7 °C 1.1 °C 1015.1 hPa Calm     35 % 0.0 mm 185.0 W/m2 CLR
19:37 16.7 °C 1.1 °C 1015.1 hPa North 5.6 km/h 5.6 km/h 35 % 0.0 mm 172.0 W/m2 CLR
19:42 16.7 °C 1.1 °C 1015.1 hPa NE 5.6 km/h 5.6 km/h 35 % 0.0 mm 156.0 W/m2 CLR
19:47 16.5 °C 0.9 °C 1015.1 hPa NNE 11.1 km/h 11.1 km/h 35 % 0.0 mm 134.0 W/m2 CLR
19:52 16.3 °C 0.8 °C 1015.1 hPa NNE 5.6 km/h 5.6 km/h 35 % 0.0 mm 114.0 W/m2 CLR
19:57 16.2 °C 1.1 °C 1015.5 hPa NNE 3.7 km/h 3.7 km/h 36 % 0.0 mm 95.0 W/m2 CLR
20:02 16.1 °C 0.9 °C 1015.5 hPa ENE 3.7 km/h 3.7 km/h 36 % 0.0 mm 83.0 W/m2 FEW
20:07 15.6 °C 2.3 °C 1015.5 hPa ESE 9.3 km/h 9.3 km/h 41 % 0.0 mm 67.0 W/m2 FEW
20:12 15.2 °C 2.7 °C 1015.5 hPa ENE 9.3 km/h 9.3 km/h 43 % 0.0 mm 33.0 W/m2 BKN
20:17 14.9 °C 2.8 °C 1015.5 hPa ESE 9.3 km/h 9.3 km/h 44 % 0.0 mm 30.0 W/m2 BKN
20:22 14.8 °C 2.9 °C 1015.5 hPa SE 9.3 km/h 9.3 km/h 45 % 0.0 mm 26.0 W/m2 BKN
20:27 14.6 °C 3.1 °C 1015.5 hPa SE 5.6 km/h 5.6 km/h 46 % 0.0 mm 23.0 W/m2 BKN
20:32 14.5 °C 3.0 °C 1015.5 hPa SE 5.6 km/h 5.6 km/h 46 % 0.0 mm 19.0 W/m2 BKN
20:37 14.4 °C 2.9 °C 1015.5 hPa SSE 5.6 km/h 5.6 km/h 46 % 0.0 mm 16.0 W/m2 BKN
20:42 14.2 °C 3.3 °C 1015.8 hPa SSE 11.1 km/h 11.1 km/h 48 % 0.0 mm 12.0 W/m2 BKN
20:47 13.9 °C 3.4 °C 1015.8 hPa SSE 7.4 km/h 7.4 km/h 49 % 0.0 mm 7.0 W/m2 BKN
20:52 13.8 °C 3.5 °C 1015.8 hPa SSE 8.0 km/h 8.0 km/h 50 % 0.0 mm 0.0 W/m2 OVC
20:53 13.7 °C 3.5 °C 1015.8 hPa SSE 9.3 km/h 9.3 km/h 50 % 0.0 mm 0.0 W/m2 OVC
20:58 13.6 °C 3.6 °C 1015.8 hPa SE 5.6 km/h 5.6 km/h 51 % 0.0 mm 0.0 W/m2 OVC
21:04 13.3 °C 3.7 °C 1016.1 hPa SE 5.6 km/h 5.6 km/h 52 % 0.0 mm 0.0 W/m2 CLR
21:09 13.2 °C 3.8 °C 1016.1 hPa SSE 7.4 km/h 7.4 km/h 53 % 0.0 mm 0.0 W/m2 CLR
21:14 13.0 °C 3.9 °C 1016.1 hPa SSE 5.6 km/h 5.6 km/h 54 % 0.0 mm 0.0 W/m2 CLR
21:19 12.9 °C 4.1 °C 1016.1 hPa SSE 9.3 km/h 9.3 km/h 55 % 0.0 mm 0.0 W/m2 CLR
21:24 12.8 °C 4.2 °C 1016.1 hPa SE 9.3 km/h 9.3 km/h 56 % 0.0 mm 0.0 W/m2 CLR
21:29 12.7 °C 4.1 °C 1016.5 hPa SSE 7.4 km/h 7.4 km/h 56 % 0.0 mm 0.0 W/m2 CLR
21:34 12.6 °C 4.3 °C 1016.5 hPa South 5.6 km/h 5.6 km/h 57 % 0.0 mm 0.0 W/m2 CLR
21:39 12.4 °C 4.7 °C 1016.5 hPa SSE 11.1 km/h 11.1 km/h 59 % 0.0 mm 0.0 W/m2 CLR
21:44 12.3 °C 5.0 °C 1016.5 hPa SSE 9.3 km/h 9.3 km/h 61 % 0.0 mm 0.0 W/m2 CLR
21:49 12.3 °C 5.2 °C 1016.5 hPa SSE 11.1 km/h 11.1 km/h 62 % 0.0 mm 0.0 W/m2 CLR
21:54 12.2 °C 5.2 °C 1016.5 hPa South 9.3 km/h 9.3 km/h 62 % 0.0 mm 0.0 W/m2 CLR
21:59 12.1 °C 5.2 °C 1016.5 hPa South 13.0 km/h 13.0 km/h 63 % 0.0 mm 0.0 W/m2 CLR
22:04 12.0 °C 5.2 °C 1016.5 hPa South 14.8 km/h 14.8 km/h 63 % 0.0 mm 0.0 W/m2 CLR
22:09 11.9 °C 5.3 °C 1016.5 hPa South 11.3 km/h 11.3 km/h 64 % 0.0 mm 0.0 W/m2 CLR
22:14 11.8 °C 5.2 °C 1016.5 hPa South 5.6 km/h 6.8 km/h 64 % 0.0 mm 0.0 W/m2 CLR
22:19 11.7 °C 5.1 °C 1016.5 hPa South 7.4 km/h 7.4 km/h 64 % 0.0 mm 0.0 W/m2 CLR
22:24 11.6 °C 5.2 °C 1016.5 hPa South 5.6 km/h 5.6 km/h 65 % 0.0 mm 0.0 W/m2 CLR
22:29 11.5 °C 5.4 °C 1016.5 hPa South 5.6 km/h 5.6 km/h 66 % 0.0 mm 0.0 W/m2 CLR
22:34 11.4 °C 5.3 °C 1016.8 hPa South 5.6 km/h 5.6 km/h 66 % 0.0 mm 0.0 W/m2 CLR
22:39 11.3 °C 5.2 °C 1016.8 hPa SSW 5.6 km/h 5.6 km/h 66 % 0.0 mm 0.0 W/m2 CLR
22:44 11.2 °C 5.3 °C 1016.8 hPa South 3.7 km/h 3.7 km/h 67 % 0.0 mm 0.0 W/m2 CLR
22:49 11.2 °C 5.3 °C 1016.8 hPa Calm     67 % 0.0 mm 0.0 W/m2 CLR
22:54 11.1 °C 5.2 °C 1016.8 hPa South 1.9 km/h 1.9 km/h 67 % 0.0 mm 0.0 W/m2 CLR
22:59 11.0 °C 5.3 °C 1016.8 hPa Calm     68 % 0.0 mm 0.0 W/m2 CLR
23:04 10.9 °C 5.2 °C 1017.2 hPa Calm     68 % 0.0 mm 0.0 W/m2 CLR
23:09 10.8 °C 5.1 °C 1017.2 hPa Calm     68 % 0.0 mm 0.0 W/m2 CLR
23:14 10.7 °C 5.0 °C 1017.2 hPa Calm     68 % 0.0 mm 0.0 W/m2 CLR
23:19 10.4 °C 4.9 °C 1017.2 hPa Calm     69 % 0.0 mm 0.0 W/m2 CLR
23:24 10.2 °C 4.9 °C 1017.2 hPa Calm     70 % 0.0 mm 0.0 W/m2 CLR
23:29 10.0 °C 5.0 °C 1017.2 hPa Calm     71 % 0.0 mm 0.0 W/m2 CLR
23:34 9.8 °C 5.0 °C 1017.2 hPa Calm     72 % 0.0 mm 0.0 W/m2 CLR
23:39 9.7 °C 4.8 °C 1017.2 hPa Calm     72 % 0.0 mm 0.0 W/m2 CLR
23:44 9.6 °C 4.9 °C 1017.2 hPa Calm     73 % 0.0 mm 0.0 W/m2 CLR
23:49 9.4 °C 4.8 °C 1017.2 hPa Calm     73 % 0.0 mm 0.0 W/m2 CLR
23:54 9.4 °C 5.0 °C 1017.2 hPa Calm     74 % 0.0 mm 0.0 W/m2 CLR
Lo Temps de Massalio
Compliments of Weather Underground - 1.25 mb